createdAt,value
2023-04-21T00:02:11.064Z,8.96
2023-04-21T00:04:39.060Z,8.87
2023-04-21T00:07:07.135Z,8.79
2023-04-21T00:09:35.270Z,8.73
2023-04-21T00:12:03.104Z,8.70
2023-04-21T00:14:30.916Z,8.69
2023-04-21T00:17:00.416Z,8.63
2023-04-21T00:19:29.802Z,8.60
2023-04-21T00:22:01.462Z,8.51
2023-04-21T00:24:29.490Z,8.44
2023-04-21T00:26:57.355Z,8.35
2023-04-21T00:29:25.232Z,8.24
2023-04-21T00:31:53.376Z,8.16
2023-04-21T00:34:21.444Z,8.11
2023-04-21T00:36:49.239Z,8.08
2023-04-21T00:39:17.242Z,8.04
2023-04-21T00:41:45.335Z,8.03
2023-04-21T00:44:13.204Z,7.88
2023-04-21T00:46:42.845Z,7.94
2023-04-21T00:49:11.047Z,7.90
2023-04-21T00:51:39.267Z,7.86
2023-04-21T00:54:10.194Z,7.83
2023-04-21T00:56:40.655Z,7.81
2023-04-21T00:59:08.654Z,7.80
2023-04-21T01:01:36.778Z,7.80
2023-04-21T01:04:05.459Z,7.78
2023-04-21T01:06:36.848Z,7.77
2023-04-21T01:09:05.487Z,7.78
2023-04-21T01:11:33.818Z,7.73
2023-04-21T01:14:01.952Z,7.69
2023-04-21T01:16:29.911Z,7.65
2023-04-21T01:19:00.553Z,7.63
2023-04-21T01:21:29.172Z,7.58
2023-04-21T01:23:57.084Z,7.60
2023-04-21T01:26:25.101Z,7.56
2023-04-21T01:28:53.053Z,7.53
2023-04-21T01:31:21.248Z,7.50
2023-04-21T01:33:49.382Z,7.52
2023-04-21T01:36:17.497Z,7.49
2023-04-21T01:38:45.900Z,7.46
2023-04-21T01:41:14.027Z,7.47
2023-04-21T01:43:42.169Z,7.47
2023-04-21T01:46:10.783Z,7.43
2023-04-21T01:48:39.407Z,7.38
2023-04-21T01:51:08.010Z,7.38
2023-04-21T01:53:35.821Z,7.35
2023-04-21T01:56:03.994Z,7.35
2023-04-21T01:58:32.647Z,7.30
2023-04-21T02:01:00.722Z,7.32
2023-04-21T02:03:29.081Z,7.32
2023-04-21T02:05:56.968Z,7.37
2023-04-21T02:08:24.741Z,7.40
2023-04-21T02:10:52.907Z,7.42
2023-04-21T02:13:20.890Z,7.42
2023-04-21T02:15:49.476Z,7.41
2023-04-21T02:18:18.459Z,7.44
2023-04-21T02:20:46.403Z,7.42
2023-04-21T02:23:15.127Z,7.44
2023-04-21T02:25:42.970Z,7.48
2023-04-21T02:28:10.895Z,7.61
2023-04-21T02:30:40.004Z,7.84
2023-04-21T02:33:09.361Z,8.20
2023-04-21T02:35:39.097Z,8.42
2023-04-21T02:38:09.029Z,8.60
2023-04-21T02:40:36.943Z,8.84
2023-04-21T02:43:04.967Z,9.16
2023-04-21T02:45:32.822Z,9.59
2023-04-21T02:48:00.866Z,9.98
2023-04-21T02:50:31.346Z,10.28
2023-04-21T02:52:59.151Z,10.54
2023-04-21T02:55:27.076Z,11.11
2023-04-21T02:57:55.023Z,11.30
2023-04-21T03:00:24.780Z,11.48
2023-04-21T03:02:54.052Z,12.02
2023-04-21T03:05:28.315Z,12.14
2023-04-21T03:07:58.010Z,12.72
2023-04-21T03:10:26.438Z,13.18
2023-04-21T03:12:58.261Z,13.73
2023-04-21T03:15:26.375Z,14.23
2023-04-21T03:17:55.109Z,14.76
2023-04-21T03:20:26.848Z,15.50
2023-04-21T03:22:57.153Z,16.26
2023-04-21T03:25:27.665Z,17.12
2023-04-21T03:27:56.583Z,17.89
2023-04-21T03:30:28.022Z,18.20
2023-04-21T03:32:59.095Z,17.74
2023-04-21T03:35:27.665Z,17.69
2023-04-21T03:37:55.720Z,17.75
2023-04-21T03:40:23.743Z,17.42
2023-04-21T03:42:51.966Z,17.99
2023-04-21T03:45:22.790Z,17.84
2023-04-21T03:47:55.827Z,18.16
2023-04-21T03:50:23.951Z,18.45
2023-04-21T03:52:51.757Z,18.50
2023-04-21T03:55:19.564Z,18.55
2023-04-21T03:57:48.650Z,19.10
2023-04-21T04:00:16.549Z,19.55
2023-04-21T04:02:44.695Z,19.63
2023-04-21T04:05:12.914Z,19.78
2023-04-21T04:07:40.956Z,19.42
2023-04-21T04:10:09.011Z,19.00
2023-04-21T04:12:39.575Z,19.13
2023-04-21T04:15:34.596Z,19.32
2023-04-21T04:18:02.732Z,19.56
2023-04-21T04:20:30.650Z,19.93
2023-04-21T04:22:58.513Z,20.21
2023-04-21T04:25:27.314Z,20.55
2023-04-21T04:27:57.694Z,21.11
2023-04-21T04:30:28.189Z,21.36
2023-04-21T04:33:02.315Z,21.37
2023-04-21T04:35:30.363Z,20.84
2023-04-21T04:38:00.729Z,20.97
2023-04-21T04:40:29.986Z,20.84
2023-04-21T04:42:58.316Z,20.62
2023-04-21T04:45:28.800Z,20.89
2023-04-21T04:47:56.786Z,20.76
2023-04-21T04:50:24.816Z,19.60
2023-04-21T04:52:52.737Z,19.23
2023-04-21T04:55:20.706Z,19.22
2023-04-21T04:57:49.344Z,19.48
2023-04-21T05:00:17.464Z,19.76
2023-04-21T05:02:45.566Z,19.14
2023-04-21T05:05:13.675Z,18.91
2023-04-21T05:07:41.710Z,18.88
2023-04-21T05:10:09.520Z,18.67
2023-04-21T05:12:37.518Z,18.71
2023-04-21T05:15:07.035Z,18.70
2023-04-21T05:17:35.010Z,19.24
2023-04-21T05:20:07.711Z,18.64
2023-04-21T05:22:38.883Z,19.09
2023-04-21T05:25:07.617Z,18.73
2023-04-21T05:27:35.448Z,18.31
2023-04-21T05:30:03.365Z,18.03
2023-04-21T05:32:33.335Z,18.15
2023-04-21T05:35:01.310Z,18.01
2023-04-21T05:37:32.666Z,18.32
2023-04-21T05:40:00.955Z,18.16
2023-04-21T05:42:29.638Z,18.20
2023-04-21T05:45:00.887Z,18.58
2023-04-21T05:47:32.091Z,19.08
2023-04-21T05:50:00.035Z,19.00
2023-04-21T05:52:30.904Z,19.08
2023-04-21T05:55:02.336Z,19.26
2023-04-21T05:57:32.852Z,19.20
2023-04-21T06:00:00.748Z,18.91
2023-04-21T06:02:28.781Z,18.31
2023-04-21T06:04:57.137Z,18.26
2023-04-21T06:07:25.203Z,18.40
2023-04-21T06:09:53.228Z,18.14
2023-04-21T06:12:21.241Z,17.63
2023-04-21T06:14:49.150Z,17.67
2023-04-21T06:17:18.222Z,17.96
2023-04-21T06:19:46.244Z,18.15
2023-04-21T06:22:14.163Z,17.83
2023-04-21T06:24:41.967Z,17.57
2023-04-21T06:27:13.372Z,17.57
2023-04-21T06:29:42.957Z,17.74
2023-04-21T06:32:11.683Z,18.21
2023-04-21T06:34:39.867Z,18.15
2023-04-21T06:37:07.665Z,18.10
2023-04-21T06:39:35.787Z,17.82
2023-04-21T06:42:03.790Z,18.00
2023-04-21T06:44:32.622Z,17.57
2023-04-21T06:47:00.544Z,17.32
2023-04-21T06:49:28.532Z,17.79
2023-04-21T06:51:56.592Z,17.89
2023-04-21T06:54:24.423Z,17.63
2023-04-21T06:56:52.269Z,16.95
2023-04-21T06:59:20.484Z,16.62
2023-04-21T07:01:52.352Z,16.47
2023-04-21T07:04:20.351Z,16.24
2023-04-21T07:06:49.364Z,16.07
2023-04-21T07:09:17.407Z,16.32
2023-04-21T07:11:45.447Z,16.85
2023-04-21T07:14:13.340Z,16.98
2023-04-21T07:16:41.248Z,17.12
2023-04-21T07:19:11.312Z,17.18
2023-04-21T07:21:39.279Z,17.37
2023-04-21T07:24:09.738Z,17.41
2023-04-21T07:26:37.625Z,17.70
2023-04-21T07:29:05.507Z,16.86
2023-04-21T07:31:33.411Z,16.60
2023-04-21T07:34:01.644Z,16.66
2023-04-21T07:36:31.191Z,16.42
2023-04-21T07:38:59.380Z,16.25
2023-04-21T07:41:27.271Z,16.18
2023-04-21T07:43:55.722Z,15.77
2023-04-21T07:46:30.140Z,15.90
2023-04-21T07:48:59.485Z,16.15
2023-04-21T07:51:28.330Z,16.23
2023-04-21T07:53:56.226Z,16.36
2023-04-21T07:56:43.203Z,16.02
2023-04-21T07:59:11.193Z,16.04
2023-04-21T08:01:39.095Z,15.58
2023-04-21T08:04:07.443Z,15.60
2023-04-21T08:06:35.570Z,15.48
2023-04-21T08:09:04.812Z,15.59
2023-04-21T08:11:32.743Z,15.78
2023-04-21T08:14:00.607Z,15.93
2023-04-21T08:16:29.907Z,15.44
2023-04-21T08:18:57.766Z,15.49
2023-04-21T08:21:25.740Z,15.58
2023-04-21T08:23:55.638Z,15.68
2023-04-21T08:26:23.867Z,15.71
2023-04-21T08:28:52.879Z,15.40
2023-04-21T08:31:21.127Z,15.11
2023-04-21T08:34:00.486Z,15.15
2023-04-21T08:36:30.737Z,15.19
2023-04-21T08:38:59.134Z,15.34
2023-04-21T08:41:27.622Z,15.41
2023-04-21T08:43:55.853Z,15.45
2023-04-21T08:46:24.489Z,15.40
2023-04-21T08:48:53.749Z,15.31
2023-04-21T08:51:24.586Z,15.22
2023-04-21T08:53:55.448Z,15.23
2023-04-21T08:56:26.615Z,15.17
2023-04-21T08:58:55.041Z,15.11
2023-04-21T09:01:23.008Z,14.89
2023-04-21T09:03:51.077Z,14.89
2023-04-21T09:06:19.138Z,14.82
2023-04-21T09:08:57.984Z,14.84
2023-04-21T09:11:25.896Z,14.81
2023-04-21T09:13:57.257Z,14.92
2023-04-21T09:16:25.047Z,15.01
2023-04-21T09:18:53.342Z,15.07
2023-04-21T09:21:23.339Z,15.05
2023-04-21T09:23:53.129Z,15.04
2023-04-21T09:26:24.177Z,14.89
2023-04-21T09:28:53.269Z,14.87
2023-04-21T09:31:26.125Z,14.82
2023-04-21T09:34:00.020Z,14.75
2023-04-21T09:36:32.082Z,14.76
2023-04-21T09:41:33.441Z,15.09
2023-04-21T09:44:02.016Z,15.12
2023-04-21T09:46:36.069Z,14.90
2023-04-21T09:49:04.636Z,14.81
2023-04-21T09:51:56.245Z,14.84
2023-04-21T09:54:29.555Z,14.73
2023-04-21T09:57:02.497Z,14.47
2023-04-21T09:59:33.710Z,14.56
2023-04-21T10:02:05.899Z,14.70
2023-04-21T10:04:35.729Z,14.73
2023-04-21T10:07:04.241Z,14.77
2023-04-21T10:09:37.619Z,14.87
2023-04-21T10:12:09.026Z,14.58
2023-04-21T10:14:38.201Z,14.32
2023-04-21T10:17:08.497Z,14.42
2023-04-21T10:19:40.876Z,14.45
2023-04-21T10:22:12.571Z,14.51
2023-04-21T10:24:41.741Z,14.53
2023-04-21T10:27:11.854Z,14.61
2023-04-21T10:29:55.476Z,14.75
2023-04-21T10:32:43.350Z,14.81
2023-04-21T10:35:17.469Z,14.83
2023-04-21T10:37:48.829Z,14.77
2023-04-21T10:43:42.780Z,14.81
2023-04-21T10:46:33.610Z,14.96
2023-04-21T10:49:31.895Z,15.10
2023-04-21T10:51:59.738Z,15.02
2023-04-21T10:54:46.495Z,14.92
2023-04-21T10:57:18.933Z,14.82
2023-04-21T10:59:48.028Z,14.81
2023-04-21T11:02:17.726Z,14.84
2023-04-21T11:04:48.891Z,14.97
2023-04-21T11:07:21.844Z,15.09
2023-04-21T11:09:58.236Z,15.13
2023-04-21T11:12:31.005Z,15.14
2023-04-21T11:14:59.374Z,15.22
2023-04-21T11:17:27.443Z,15.29
2023-04-21T11:19:59.231Z,15.35
2023-04-21T11:22:27.330Z,15.17
2023-04-21T11:24:56.429Z,15.08
2023-04-21T11:27:26.989Z,15.03
2023-04-21T11:29:56.082Z,15.03
2023-04-21T11:32:25.028Z,15.02
2023-04-21T11:34:52.955Z,14.95
2023-04-21T11:37:27.216Z,15.02
2023-04-21T11:40:01.779Z,15.11
2023-04-21T11:42:31.789Z,15.24
2023-04-21T11:44:59.624Z,15.28
2023-04-21T11:47:28.735Z,15.34
2023-04-21T11:49:59.535Z,15.30
2023-04-21T11:52:29.386Z,15.35
2023-04-21T11:55:02.242Z,15.13
2023-04-21T11:57:32.704Z,15.10
2023-04-21T12:00:06.863Z,15.24
2023-04-21T12:02:35.970Z,15.25
2023-04-21T12:05:08.397Z,15.25
2023-04-21T12:07:38.521Z,15.20
2023-04-21T12:10:12.328Z,15.21
2023-04-21T12:12:41.885Z,15.24
2023-04-21T12:15:11.531Z,15.20
2023-04-21T12:17:50.739Z,15.18
2023-04-21T12:20:29.928Z,15.12
2023-04-21T12:22:58.112Z,15.11
2023-04-21T12:25:26.398Z,15.09
2023-04-21T12:27:58.595Z,15.05
2023-04-21T12:30:26.423Z,15.02
2023-04-21T12:32:56.064Z,15.06
2023-04-21T12:35:24.390Z,15.12
2023-04-21T12:37:54.509Z,15.20
2023-04-21T12:40:23.028Z,15.30
2023-04-21T12:42:51.350Z,15.28
2023-04-21T12:45:19.322Z,15.25
2023-04-21T12:47:47.399Z,15.23
2023-04-21T12:50:16.257Z,15.20
2023-04-21T12:52:44.091Z,15.17
2023-04-21T12:55:13.604Z,15.13
2023-04-21T12:57:44.070Z,15.09
2023-04-21T13:00:13.060Z,15.10
2023-04-21T13:02:41.913Z,15.09
2023-04-21T13:05:11.995Z,15.06
2023-04-21T13:07:40.063Z,14.96
2023-04-21T13:10:08.682Z,14.90
2023-04-21T13:12:36.515Z,14.84
2023-04-21T13:15:04.996Z,14.82
2023-04-21T13:17:34.603Z,14.90
2023-04-21T13:20:02.561Z,15.02
2023-04-21T13:22:32.742Z,15.07
2023-04-21T13:25:02.848Z,15.05
2023-04-21T13:27:33.899Z,15.06
2023-04-21T13:30:10.703Z,15.05
2023-04-21T13:32:38.969Z,15.02
2023-04-21T13:35:09.398Z,14.92
2023-04-21T13:37:38.659Z,14.87
2023-04-21T13:40:08.424Z,14.83
2023-04-21T13:42:37.464Z,14.81
2023-04-21T13:45:06.738Z,14.86
2023-04-21T13:47:35.077Z,14.87
2023-04-21T13:50:03.145Z,14.82
2023-04-21T13:52:35.162Z,14.80
2023-04-21T13:55:05.347Z,14.78
2023-04-21T13:57:33.257Z,14.75
2023-04-21T14:00:01.487Z,14.79
2023-04-21T14:02:34.468Z,14.79
2023-04-21T14:05:03.115Z,14.75
2023-04-21T14:07:32.772Z,14.74
2023-04-21T14:10:01.216Z,14.74
2023-04-21T14:12:31.677Z,14.74
2023-04-21T14:14:59.570Z,14.71
2023-04-21T14:17:27.565Z,14.77
2023-04-21T14:19:55.543Z,14.79
2023-04-21T14:22:23.419Z,14.84
2023-04-21T14:24:51.534Z,14.91
2023-04-21T14:27:19.429Z,14.99
2023-04-21T14:29:47.319Z,15.03
2023-04-21T14:32:19.602Z,15.04
2023-04-21T14:34:47.587Z,15.10
2023-04-21T14:37:15.705Z,15.12
2023-04-21T14:39:43.527Z,15.17
2023-04-21T14:42:11.510Z,15.15
2023-04-21T14:44:39.321Z,15.11
2023-04-21T14:47:10.316Z,15.12
2023-04-21T14:49:38.961Z,15.08
2023-04-21T14:52:07.413Z,15.10
2023-04-21T14:54:36.436Z,15.07
2023-04-21T14:57:18.847Z,15.08
2023-04-21T14:59:50.161Z,14.95
2023-04-21T15:02:18.864Z,14.94
2023-04-21T15:04:47.247Z,14.96
2023-04-21T15:07:18.739Z,15.01
2023-04-21T15:09:51.151Z,14.99
2023-04-21T15:12:19.076Z,15.01
2023-04-21T15:14:46.875Z,14.94
2023-04-21T15:17:14.982Z,14.94
2023-04-21T15:19:42.895Z,14.92
2023-04-21T15:22:12.307Z,14.83
2023-04-21T15:24:40.213Z,14.72
2023-04-21T15:27:08.199Z,14.65
2023-04-21T15:29:36.427Z,14.58
2023-04-21T15:32:04.739Z,14.55
2023-04-21T15:34:32.781Z,14.48
2023-04-21T15:37:00.815Z,14.40
2023-04-21T15:39:28.757Z,14.38
2023-04-21T15:41:57.520Z,14.30
2023-04-21T15:44:25.654Z,14.34
2023-04-21T15:46:53.630Z,14.32
2023-04-21T15:49:23.715Z,14.30
2023-04-21T15:51:53.723Z,14.28
2023-04-21T15:54:21.600Z,14.22
2023-04-21T15:56:49.583Z,14.19
2023-04-21T15:59:17.428Z,14.10
2023-04-21T16:01:45.321Z,14.02
2023-04-21T16:04:13.513Z,13.97
2023-04-21T16:06:41.841Z,13.97
2023-04-21T16:09:11.139Z,13.92
2023-04-21T16:11:39.495Z,13.89
2023-04-21T16:14:07.416Z,13.85
2023-04-21T16:16:37.452Z,13.86
2023-04-21T16:19:05.509Z,13.83
2023-04-21T16:21:33.731Z,13.79
2023-04-21T16:24:01.620Z,13.78
2023-04-21T16:26:33.257Z,13.76
2023-04-21T16:29:01.229Z,13.72
2023-04-21T16:31:29.109Z,13.68
2023-04-21T16:34:00.312Z,13.66
2023-04-21T16:36:29.071Z,13.63
2023-04-21T16:38:57.152Z,13.61
2023-04-21T16:41:25.514Z,13.62
2023-04-21T16:43:53.379Z,13.56
2023-04-21T16:46:21.389Z,13.52
2023-04-21T16:48:49.396Z,13.50
2023-04-21T16:51:17.616Z,13.48
2023-04-21T16:53:45.399Z,13.46
2023-04-21T16:56:15.034Z,13.48
2023-04-21T16:58:42.842Z,13.48
2023-04-21T17:01:10.769Z,13.44
2023-04-21T17:03:42.021Z,13.41
2023-04-21T17:06:11.075Z,13.41
2023-04-21T17:08:39.019Z,13.35
2023-04-21T17:11:06.956Z,13.35
2023-04-21T17:13:38.234Z,13.33
2023-04-21T17:16:09.345Z,13.35
2023-04-21T17:18:37.423Z,13.34
2023-04-21T17:21:06.334Z,13.36
2023-04-21T17:23:34.397Z,13.34
2023-04-21T17:26:03.895Z,13.35
2023-04-21T17:28:32.295Z,13.25
2023-04-21T17:31:13.712Z,13.22
2023-04-21T17:33:44.741Z,13.24
2023-04-21T17:36:12.952Z,13.23
2023-04-21T17:38:42.977Z,13.20
2023-04-21T17:41:11.716Z,13.28
2023-04-21T17:43:39.668Z,13.24
2023-04-21T17:46:08.627Z,13.16
2023-04-21T17:48:36.720Z,13.15
2023-04-21T17:51:04.886Z,13.13
2023-04-21T17:53:32.902Z,13.14
2023-04-21T17:56:01.269Z,13.11
2023-04-21T17:58:29.205Z,13.03
2023-04-21T18:00:57.209Z,12.95
2023-04-21T18:03:25.937Z,12.94
2023-04-21T18:05:55.038Z,12.88
2023-04-21T18:08:23.107Z,12.86
2023-04-21T18:10:51.188Z,12.83
2023-04-21T18:13:20.791Z,12.81
2023-04-21T18:15:48.883Z,12.77
2023-04-21T18:18:16.737Z,12.75
2023-04-21T18:20:44.645Z,12.80
2023-04-21T18:23:12.643Z,12.78
2023-04-21T18:25:42.512Z,12.77
2023-04-21T18:28:13.022Z,12.78
2023-04-21T18:30:41.334Z,12.75
2023-04-21T18:33:11.900Z,12.66
2023-04-21T18:35:41.703Z,12.59
2023-04-21T18:38:11.942Z,12.59
2023-04-21T18:40:40.910Z,12.58
2023-04-21T18:43:10.061Z,12.56
2023-04-21T18:45:38.780Z,12.52
2023-04-21T18:48:06.674Z,12.47
2023-04-21T18:50:39.863Z,12.42
2023-04-21T18:53:08.983Z,12.39
2023-04-21T18:55:37.490Z,12.33
2023-04-21T18:58:05.449Z,12.31
2023-04-21T19:00:37.369Z,12.23
2023-04-21T19:03:06.487Z,12.28
2023-04-21T19:05:36.385Z,12.19
2023-04-21T19:08:04.265Z,12.18
2023-04-21T19:10:34.842Z,12.25
2023-04-21T19:13:02.678Z,12.18
2023-04-21T19:15:30.606Z,12.06
2023-04-21T19:17:58.730Z,11.97
2023-04-21T19:20:26.812Z,11.89
2023-04-21T19:22:54.946Z,11.84
2023-04-21T19:25:22.829Z,11.78
2023-04-21T19:27:55.397Z,11.77
2023-04-21T19:30:23.359Z,11.77
2023-04-21T19:32:51.250Z,11.70
2023-04-21T19:35:19.389Z,11.64
2023-04-21T19:37:50.174Z,11.59
2023-04-21T19:40:18.120Z,11.58
2023-04-21T19:42:48.460Z,11.64
2023-04-21T19:45:17.815Z,11.58
2023-04-21T19:47:50.199Z,11.55
2023-04-21T19:50:27.165Z,11.48
2023-04-21T19:52:54.971Z,11.40
2023-04-21T19:55:29.865Z,11.37
2023-04-21T19:57:58.008Z,11.39
2023-04-21T20:00:34.031Z,11.37
2023-04-21T20:03:02.059Z,11.40
2023-04-21T20:05:30.192Z,11.33
2023-04-21T20:07:58.208Z,11.34
2023-04-21T20:10:26.713Z,11.23
2023-04-21T20:13:06.982Z,11.16
2023-04-21T20:15:35.141Z,11.11
2023-04-21T20:18:07.399Z,11.18
2023-04-21T20:20:35.615Z,11.12
2023-04-21T20:23:06.513Z,11.11
2023-04-21T20:25:34.356Z,11.04
2023-04-21T20:28:02.290Z,11.01
2023-04-21T20:30:34.409Z,10.98
2023-04-21T20:33:03.604Z,10.91
